createdAt,value
2023-01-13T00:00:14.058Z,9.53
2023-01-13T00:01:14.425Z,9.53
2023-01-13T00:02:14.020Z,9.52
2023-01-13T00:03:14.342Z,9.52
2023-01-13T00:04:13.930Z,9.53
2023-01-13T00:05:13.941Z,9.58
2023-01-13T00:06:13.921Z,9.52
2023-01-13T00:07:13.954Z,9.53
2023-01-13T00:08:13.920Z,9.53
2023-01-13T00:09:14.282Z,9.53
2023-01-13T00:10:13.900Z,9.53
2023-01-13T00:11:14.087Z,9.58
2023-01-13T00:12:14.236Z,9.59
2023-01-13T00:13:13.812Z,9.59
2023-01-13T00:14:13.847Z,9.62
2023-01-13T00:15:13.793Z,9.62
2023-01-13T00:16:13.990Z,9.63
2023-01-13T00:17:13.806Z,9.67
2023-01-13T00:18:13.754Z,9.65
2023-01-13T00:19:13.740Z,9.65
2023-01-13T00:20:13.971Z,9.70
2023-01-13T00:21:13.731Z,9.71
2023-01-13T00:22:13.717Z,9.67
2023-01-13T00:23:14.225Z,9.70
2023-01-13T00:24:13.687Z,9.65
2023-01-13T00:25:14.012Z,9.67
2023-01-13T00:26:13.672Z,9.65
2023-01-13T00:27:14.106Z,9.63
2023-01-13T00:28:14.013Z,9.62
2023-01-13T00:29:13.606Z,9.58
2023-01-13T00:30:13.611Z,9.63
2023-01-13T00:31:13.969Z,9.59
2023-01-13T00:32:13.850Z,9.60
2023-01-13T00:33:13.599Z,9.58
2023-01-13T00:34:13.933Z,9.56
2023-01-13T00:35:13.560Z,9.56
2023-01-13T00:36:13.757Z,9.52
2023-01-13T00:37:13.870Z,9.55
2023-01-13T00:38:13.528Z,9.50
2023-01-13T00:39:13.550Z,9.56
2023-01-13T00:40:13.863Z,9.56
2023-01-13T00:41:13.757Z,9.58
2023-01-13T00:42:13.491Z,9.59
2023-01-13T00:43:13.500Z,9.56
2023-01-13T00:44:13.430Z,9.58
2023-01-13T00:45:13.575Z,9.60
2023-01-13T00:46:13.442Z,9.59
2023-01-13T00:47:13.679Z,9.59
2023-01-13T00:48:13.380Z,9.63
2023-01-13T00:49:13.349Z,9.62
2023-01-13T00:50:13.348Z,9.58
2023-01-13T00:51:13.811Z,9.53
2023-01-13T00:52:13.316Z,9.53
2023-01-13T00:53:13.619Z,9.53
2023-01-13T00:54:13.286Z,9.49
2023-01-13T00:55:13.270Z,9.52
2023-01-13T00:56:13.609Z,9.48
2023-01-13T00:57:13.749Z,9.44
2023-01-13T00:58:13.649Z,9.45
2023-01-13T00:59:13.586Z,9.45
2023-01-13T01:00:13.189Z,9.50
2023-01-13T01:01:13.298Z,9.49
2023-01-13T01:02:13.274Z,9.45
2023-01-13T01:03:13.437Z,9.49
2023-01-13T01:04:13.602Z,9.45
2023-01-13T01:05:13.142Z,9.48
2023-01-13T01:06:13.261Z,9.48
2023-01-13T01:07:13.309Z,9.42
2023-01-13T01:08:13.142Z,9.42
2023-01-13T01:09:13.395Z,9.42
2023-01-13T01:10:13.068Z,9.41
2023-01-13T01:11:13.107Z,9.44
2023-01-13T01:12:13.037Z,9.40
2023-01-13T01:13:13.122Z,9.41
2023-01-13T01:14:13.179Z,9.41
2023-01-13T01:15:13.049Z,9.37
2023-01-13T01:16:13.269Z,9.38
2023-01-13T01:17:13.147Z,9.41
2023-01-13T01:18:13.207Z,9.40
2023-01-13T01:19:13.025Z,9.41
2023-01-13T01:20:13.035Z,9.41
2023-01-13T01:21:13.077Z,9.42
2023-01-13T01:22:13.152Z,9.45
2023-01-13T01:23:13.206Z,9.41
2023-01-13T01:24:13.216Z,9.45
2023-01-13T01:25:13.108Z,9.42
2023-01-13T01:26:13.075Z,9.49
2023-01-13T01:27:13.222Z,9.50
2023-01-13T01:28:13.075Z,9.52
2023-01-13T01:29:12.978Z,9.49
2023-01-13T01:30:13.085Z,9.55
2023-01-13T01:31:13.077Z,9.59
2023-01-13T01:32:12.783Z,9.59
2023-01-13T01:33:12.803Z,9.67
2023-01-13T01:34:12.768Z,9.68
2023-01-13T01:35:12.757Z,9.71
2023-01-13T01:36:12.740Z,9.77
2023-01-13T01:37:13.962Z,9.78
2023-01-13T01:38:13.044Z,9.80
2023-01-13T01:39:13.039Z,9.73
2023-01-13T01:40:13.211Z,9.68
2023-01-13T01:41:12.659Z,9.75
2023-01-13T01:42:12.739Z,9.71
2023-01-13T01:43:12.685Z,9.74
2023-01-13T01:44:12.822Z,9.75
2023-01-13T01:45:12.908Z,9.77
2023-01-13T01:46:12.618Z,9.78
2023-01-13T01:47:12.801Z,9.77
2023-01-13T01:48:12.627Z,9.80
2023-01-13T01:49:12.876Z,9.75
2023-01-13T01:50:12.543Z,9.75
2023-01-13T01:51:12.929Z,9.75
2023-01-13T01:52:12.853Z,9.75
2023-01-13T01:53:13.016Z,9.75
2023-01-13T01:54:12.595Z,9.73
2023-01-13T01:55:12.803Z,9.78
2023-01-13T01:56:12.697Z,9.78
2023-01-13T01:57:12.846Z,9.73
2023-01-13T01:58:12.489Z,9.67
2023-01-13T01:59:13.693Z,9.68
2023-01-13T02:00:12.653Z,9.67
2023-01-13T02:01:12.568Z,9.70
2023-01-13T02:02:13.382Z,9.68
2023-01-13T02:03:12.388Z,9.68
2023-01-13T02:04:12.709Z,9.73
2023-01-13T02:05:12.368Z,9.73
2023-01-13T02:06:12.327Z,9.70
2023-01-13T02:07:12.695Z,9.71
2023-01-13T02:08:12.568Z,9.75
2023-01-13T02:09:12.735Z,9.73
2023-01-13T02:10:12.282Z,9.71
2023-01-13T02:11:12.264Z,9.75
2023-01-13T02:12:12.292Z,9.73
2023-01-13T02:13:12.510Z,9.71
2023-01-13T02:14:12.450Z,9.70
2023-01-13T02:15:12.428Z,9.70
2023-01-13T02:16:12.638Z,9.63
2023-01-13T02:17:12.713Z,9.60
2023-01-13T02:18:12.371Z,9.59
2023-01-13T02:19:12.177Z,9.63
2023-01-13T02:20:12.154Z,9.62
2023-01-13T02:21:12.136Z,9.65
2023-01-13T02:22:12.114Z,9.70
2023-01-13T02:23:12.424Z,9.71
2023-01-13T02:24:12.190Z,9.70
2023-01-13T02:25:12.106Z,9.70
2023-01-13T02:26:12.645Z,9.63
2023-01-13T02:27:12.560Z,9.60
2023-01-13T02:28:12.056Z,9.55
2023-01-13T02:29:12.633Z,9.52
2023-01-13T02:30:12.539Z,9.41
2023-01-13T02:31:12.492Z,9.42
2023-01-13T02:32:12.022Z,9.44
2023-01-13T02:33:12.023Z,9.40
2023-01-13T02:34:11.984Z,9.40
2023-01-13T02:35:12.575Z,9.38
2023-01-13T02:36:12.455Z,9.38
2023-01-13T02:37:12.354Z,9.38
2023-01-13T02:38:11.940Z,9.34
2023-01-13T02:39:11.965Z,9.32
2023-01-13T02:40:12.061Z,9.26
2023-01-13T02:41:11.884Z,9.24
2023-01-13T02:42:11.903Z,9.17
2023-01-13T02:43:11.859Z,9.17
2023-01-13T02:44:11.871Z,9.16
2023-01-13T02:45:12.305Z,9.15
2023-01-13T02:46:12.269Z,9.12
2023-01-13T02:47:12.111Z,9.06
2023-01-13T02:48:12.338Z,9.06
2023-01-13T02:49:11.795Z,9.04
2023-01-13T02:50:11.803Z,8.98
2023-01-13T02:51:12.327Z,8.93
2023-01-13T02:52:12.240Z,8.89
2023-01-13T02:53:12.112Z,8.89
2023-01-13T02:54:12.286Z,8.85
2023-01-13T02:55:12.173Z,8.91
2023-01-13T02:56:12.357Z,8.89
2023-01-13T02:57:12.415Z,8.97
2023-01-13T02:58:12.140Z,8.94
2023-01-13T02:59:12.036Z,8.98
2023-01-13T03:00:12.260Z,8.93
2023-01-13T03:01:12.835Z,8.88
2023-01-13T03:02:12.527Z,8.82
2023-01-13T03:03:12.229Z,8.85
2023-01-13T03:04:12.369Z,8.83
2023-01-13T03:05:12.301Z,8.80
2023-01-13T03:06:11.426Z,8.79
2023-01-13T03:07:11.485Z,8.76
2023-01-13T03:08:11.521Z,8.79
2023-01-13T03:09:11.587Z,8.78
2023-01-13T03:10:11.641Z,8.79
2023-01-13T03:11:11.691Z,8.79
2023-01-13T03:12:12.923Z,8.86
2023-01-13T03:13:11.789Z,8.93
2023-01-13T03:14:11.706Z,9.01
2023-01-13T03:15:11.919Z,9.01
2023-01-13T03:16:11.608Z,9.01
2023-01-13T03:17:11.291Z,9.00
2023-01-13T03:18:12.046Z,9.00
2023-01-13T03:19:11.333Z,9.08
2023-01-13T03:20:12.139Z,9.10
2023-01-13T03:21:12.038Z,9.12
2023-01-13T03:22:11.935Z,9.06
2023-01-13T03:23:12.414Z,9.12
2023-01-13T03:24:12.517Z,9.10
2023-01-13T03:25:11.921Z,9.08
2023-01-13T03:26:12.564Z,9.13
2023-01-13T03:27:11.987Z,9.16
2023-01-13T03:28:11.209Z,9.19
2023-01-13T03:29:11.176Z,9.16
2023-01-13T03:30:11.237Z,9.17
2023-01-13T03:31:11.292Z,9.16
2023-01-13T03:32:11.075Z,9.20
2023-01-13T03:33:11.081Z,9.24
2023-01-13T03:34:11.155Z,9.24
2023-01-13T03:35:11.032Z,9.19
2023-01-13T03:36:11.093Z,9.10
2023-01-13T03:37:11.037Z,9.03
2023-01-13T03:38:11.095Z,8.98
2023-01-13T03:39:11.154Z,8.94
2023-01-13T03:40:11.215Z,8.93
2023-01-13T03:41:11.307Z,8.85
2023-01-13T03:42:11.287Z,8.76
2023-01-13T03:43:11.389Z,8.73
2023-01-13T03:44:11.457Z,8.75
2023-01-13T03:45:11.524Z,8.76
2023-01-13T03:46:11.610Z,8.68
2023-01-13T03:47:11.650Z,8.71
2023-01-13T03:48:11.682Z,8.70
2023-01-13T03:49:11.169Z,8.71
2023-01-13T03:50:11.793Z,8.70
2023-01-13T03:51:11.427Z,8.68
2023-01-13T03:52:11.299Z,8.68
2023-01-13T03:53:11.543Z,8.68
2023-01-13T03:54:11.323Z,8.64
2023-01-13T03:55:11.596Z,8.68
2023-01-13T03:56:10.818Z,8.57
2023-01-13T03:57:11.666Z,8.49
2023-01-13T03:58:11.597Z,8.42
2023-01-13T03:59:11.474Z,8.45
2023-01-13T04:00:11.641Z,8.39
2023-01-13T04:01:11.633Z,8.45
2023-01-13T04:02:11.953Z,8.37
2023-01-13T04:03:10.680Z,8.43
2023-01-13T04:04:10.751Z,8.34
2023-01-13T04:05:10.756Z,8.40
2023-01-13T04:06:10.817Z,8.34
2023-01-13T04:07:10.876Z,8.37
2023-01-13T04:08:10.935Z,8.34
2023-01-13T04:09:10.993Z,8.22
2023-01-13T04:10:11.053Z,8.17
2023-01-13T04:11:11.103Z,8.18
2023-01-13T04:12:11.167Z,8.17
2023-01-13T04:13:11.221Z,8.17
2023-01-13T04:14:11.316Z,8.24
2023-01-13T04:15:11.344Z,8.21
2023-01-13T04:16:11.398Z,8.22
2023-01-13T04:17:10.596Z,8.20
2023-01-13T04:18:11.559Z,8.21
2023-01-13T04:19:11.350Z,8.17
2023-01-13T04:20:11.034Z,8.18
2023-01-13T04:21:11.403Z,8.13
2023-01-13T04:22:11.314Z,8.10
2023-01-13T04:23:11.224Z,8.07
2023-01-13T04:24:11.364Z,8.04
2023-01-13T04:25:10.663Z,8.00
2023-01-13T04:26:11.195Z,8.03
2023-01-13T04:27:10.402Z,7.94
2023-01-13T04:28:10.353Z,8.02
2023-01-13T04:29:14.046Z,8.02
2023-01-13T04:30:11.043Z,8.10
2023-01-13T04:31:11.383Z,8.12
2023-01-13T04:32:10.320Z,8.06
2023-01-13T04:33:10.429Z,8.14
2023-01-13T04:34:10.403Z,8.09
2023-01-13T04:35:10.468Z,8.10
2023-01-13T04:36:10.527Z,8.09
2023-01-13T04:37:10.334Z,7.99
2023-01-13T04:38:10.628Z,7.94
2023-01-13T04:39:10.305Z,7.95
2023-01-13T04:40:10.670Z,7.94
2023-01-13T04:41:10.808Z,7.92
2023-01-13T04:42:10.950Z,7.89
2023-01-13T04:43:10.153Z,7.88
2023-01-13T04:44:10.981Z,7.81
2023-01-13T04:45:10.883Z,7.81
2023-01-13T04:46:11.176Z,7.84
2023-01-13T04:47:10.974Z,7.86
2023-01-13T04:48:11.338Z,7.82
2023-01-13T04:49:11.018Z,7.79
2023-01-13T04:50:10.055Z,7.70
2023-01-13T04:51:10.800Z,7.69
2023-01-13T04:52:10.984Z,7.69
2023-01-13T04:53:10.911Z,7.73
2023-01-13T04:54:10.779Z,7.79
2023-01-13T04:55:10.959Z,7.76
2023-01-13T04:56:10.863Z,7.81
2023-01-13T04:57:10.763Z,7.84
2023-01-13T04:58:10.924Z,7.84
2023-01-13T04:59:09.946Z,7.86
2023-01-13T05:00:10.017Z,7.86
2023-01-13T05:01:10.159Z,7.91
2023-01-13T05:02:10.200Z,7.92
2023-01-13T05:03:10.175Z,7.82
2023-01-13T05:04:10.309Z,7.79
2023-01-13T05:05:10.350Z,7.79
2023-01-13T05:06:10.328Z,7.79
2023-01-13T05:07:09.845Z,7.73
2023-01-13T05:08:10.440Z,7.73
2023-01-13T05:09:10.491Z,7.73
2023-01-13T05:10:10.551Z,7.76
2023-01-13T05:11:10.012Z,7.69
2023-01-13T05:12:09.807Z,7.57
2023-01-13T05:13:10.501Z,7.51
2023-01-13T05:14:10.038Z,7.45
2023-01-13T05:15:10.574Z,7.50
2023-01-13T05:16:11.421Z,7.37
2023-01-13T05:17:09.881Z,7.34
2023-01-13T05:18:10.549Z,7.30
2023-01-13T05:19:09.783Z,7.21
2023-01-13T05:20:10.600Z,7.18
2023-01-13T05:21:10.037Z,7.16
2023-01-13T05:22:10.027Z,7.18
2023-01-13T05:23:10.590Z,7.21
2023-01-13T05:24:10.487Z,7.18
2023-01-13T05:25:10.371Z,7.16
2023-01-13T05:26:09.624Z,7.14
2023-01-13T05:27:09.861Z,7.14
2023-01-13T05:28:09.612Z,7.08
2023-01-13T05:29:09.629Z,7.08
2023-01-13T05:30:09.679Z,7.07
2023-01-13T05:31:09.880Z,7.04
2023-01-13T05:32:09.806Z,7.01
2023-01-13T05:33:09.856Z,7.05
2023-01-13T05:34:09.914Z,7.04
2023-01-13T05:35:09.992Z,6.99
2023-01-13T05:36:10.052Z,6.99
2023-01-13T05:37:09.743Z,6.96
2023-01-13T05:38:10.150Z,6.89
2023-01-13T05:39:10.197Z,6.96
2023-01-13T05:40:10.230Z,6.96
2023-01-13T05:41:10.133Z,6.96
2023-01-13T05:42:10.295Z,7.00
2023-01-13T05:43:10.430Z,7.01
2023-01-13T05:44:10.005Z,6.99
2023-01-13T05:45:09.323Z,6.99
2023-01-13T05:46:10.204Z,6.96
2023-01-13T05:47:09.304Z,6.96
2023-01-13T05:48:09.378Z,6.93
2023-01-13T05:49:09.385Z,6.94
2023-01-13T05:50:09.489Z,6.87
2023-01-13T05:51:09.508Z,6.93
2023-01-13T05:52:09.268Z,6.90
2023-01-13T05:53:09.316Z,6.91
2023-01-13T05:54:09.261Z,6.93
2023-01-13T05:55:09.442Z,6.96
2023-01-13T05:56:09.215Z,6.90
2023-01-13T05:57:09.253Z,6.86
2023-01-13T05:58:09.386Z,6.87
2023-01-13T05:59:09.835Z,6.86
2023-01-13T06:00:09.441Z,6.81
2023-01-13T06:01:10.001Z,6.82
2023-01-13T06:02:09.534Z,6.90
2023-01-13T06:03:09.679Z,6.90
2023-01-13T06:04:09.658Z,6.93
2023-01-13T06:05:09.687Z,6.93
2023-01-13T06:06:09.719Z,6.86
2023-01-13T06:07:09.839Z,6.86
2023-01-13T06:08:09.575Z,6.82
2023-01-13T06:09:09.855Z,6.89
2023-01-13T06:10:09.917Z,6.91
2023-01-13T06:11:09.168Z,6.99
2023-01-13T06:12:09.143Z,7.01
2023-01-13T06:13:09.620Z,6.99
2023-01-13T06:14:09.583Z,7.01
2023-01-13T06:15:09.405Z,7.05
2023-01-13T06:16:09.440Z,7.09
2023-01-13T06:17:09.791Z,7.11
2023-01-13T06:18:10.013Z,7.16
2023-01-13T06:19:09.451Z,7.18
2023-01-13T06:20:09.023Z,7.23
2023-01-13T06:21:14.854Z,7.26
2023-01-13T06:22:08.861Z,7.34
2023-01-13T06:23:08.832Z,7.44
2023-01-13T06:24:08.942Z,7.44
2023-01-13T06:25:08.814Z,7.51
2023-01-13T06:26:09.116Z,7.47
2023-01-13T06:27:08.795Z,7.51
2023-01-13T06:28:08.813Z,7.54
2023-01-13T06:29:08.831Z,7.58
2023-01-13T06:30:08.812Z,7.63
2023-01-13T06:31:08.884Z,7.66
2023-01-13T06:32:08.852Z,7.73
2023-01-13T06:33:08.702Z,7.74
2023-01-13T06:34:08.726Z,7.70
2023-01-13T06:35:08.796Z,7.69
2023-01-13T06:36:08.858Z,7.70
2023-01-13T06:37:08.794Z,7.74
2023-01-13T06:38:08.761Z,7.76
2023-01-13T06:39:08.786Z,7.84
2023-01-13T06:40:08.761Z,7.77
2023-01-13T06:41:08.772Z,7.77
2023-01-13T06:42:08.779Z,7.76
2023-01-13T06:43:08.770Z,7.77
2023-01-13T06:44:08.793Z,7.69
2023-01-13T06:45:08.783Z,7.71
2023-01-13T06:46:08.773Z,7.70
2023-01-13T06:47:08.844Z,7.79
2023-01-13T06:48:08.774Z,7.73
2023-01-13T06:49:08.774Z,7.73
2023-01-13T06:50:08.544Z,7.74
2023-01-13T06:51:08.761Z,7.73
2023-01-13T06:52:08.856Z,7.79
2023-01-13T06:53:08.771Z,7.79
2023-01-13T06:54:08.777Z,7.82
2023-01-13T06:55:08.862Z,7.79
2023-01-13T06:56:08.353Z,7.86
2023-01-13T06:57:08.371Z,7.79
2023-01-13T06:58:08.435Z,7.74
2023-01-13T06:59:08.521Z,7.73
2023-01-13T07:00:08.546Z,7.66
2023-01-13T07:01:08.490Z,7.66
2023-01-13T07:02:08.745Z,7.51
2023-01-13T07:03:08.710Z,7.52
2023-01-13T07:04:08.312Z,7.58
2023-01-13T07:05:08.221Z,7.45
2023-01-13T07:06:08.632Z,7.45
2023-01-13T07:07:08.202Z,7.39
2023-01-13T07:08:08.849Z,7.29
2023-01-13T07:09:08.864Z,7.26
2023-01-13T07:10:08.805Z,7.24
2023-01-13T07:11:08.249Z,7.26
2023-01-13T07:12:08.759Z,7.23
2023-01-13T07:13:08.758Z,7.29
2023-01-13T07:14:08.767Z,7.26
2023-01-13T07:15:08.298Z,7.27
2023-01-13T07:16:08.863Z,7.23
2023-01-13T07:17:08.775Z,7.30
2023-01-13T07:18:08.760Z,7.34
2023-01-13T07:19:08.827Z,7.39
2023-01-13T07:20:08.755Z,7.42
2023-01-13T07:21:08.753Z,7.41
2023-01-13T07:22:08.872Z,7.42
2023-01-13T07:23:08.775Z,7.44
2023-01-13T07:24:08.018Z,7.48
2023-01-13T07:25:08.860Z,7.54
2023-01-13T07:26:07.968Z,7.54
2023-01-13T07:27:07.928Z,7.51
2023-01-13T07:28:07.977Z,7.52
2023-01-13T07:29:08.037Z,7.52
2023-01-13T07:30:08.185Z,7.60
2023-01-13T07:31:08.096Z,7.62
2023-01-13T07:32:08.295Z,7.51
2023-01-13T07:33:08.295Z,7.54
2023-01-13T07:34:08.298Z,7.60
2023-01-13T07:35:08.233Z,7.58
2023-01-13T07:36:08.445Z,7.67
2023-01-13T07:37:07.851Z,7.60
2023-01-13T07:38:08.539Z,7.73
2023-01-13T07:39:08.537Z,7.71
2023-01-13T07:40:07.782Z,7.74
2023-01-13T07:41:07.757Z,7.76
2023-01-13T07:42:07.834Z,7.77
2023-01-13T07:43:08.052Z,7.79
2023-01-13T07:44:08.805Z,7.79
2023-01-13T07:45:10.278Z,7.79
2023-01-13T07:46:07.771Z,7.71
2023-01-13T07:47:08.528Z,7.71
2023-01-13T07:48:07.700Z,7.63
2023-01-13T07:49:08.585Z,7.62
2023-01-13T07:50:08.488Z,7.54
2023-01-13T07:51:08.400Z,7.52
2023-01-13T07:52:08.849Z,7.54
2023-01-13T07:53:08.469Z,7.51
2023-01-13T07:54:08.354Z,7.45
2023-01-13T07:55:08.022Z,7.45
2023-01-13T07:56:08.412Z,7.42
2023-01-13T07:57:07.588Z,7.45
2023-01-13T07:58:07.673Z,7.45
2023-01-13T07:59:07.698Z,7.48
2023-01-13T08:00:07.757Z,7.47
2023-01-13T08:01:07.932Z,7.48
2023-01-13T08:02:07.657Z,7.48
2023-01-13T08:03:08.007Z,7.50
2023-01-13T08:04:07.494Z,7.50
2023-01-13T08:05:11.699Z,7.51
2023-01-13T08:06:07.474Z,7.54
2023-01-13T08:07:07.420Z,7.48
2023-01-13T08:08:07.420Z,7.54
2023-01-13T08:09:07.416Z,7.54
2023-01-13T08:10:07.403Z,7.58
2023-01-13T08:11:07.460Z,7.60
2023-01-13T08:12:07.416Z,7.57
2023-01-13T08:13:07.314Z,7.62
2023-01-13T08:14:07.341Z,7.66
2023-01-13T08:15:07.411Z,7.63
2023-01-13T08:16:07.415Z,7.66
2023-01-13T08:17:07.480Z,7.70
2023-01-13T08:18:07.431Z,7.71
2023-01-13T08:19:07.313Z,7.69
2023-01-13T08:20:07.413Z,7.71
2023-01-13T08:21:07.441Z,7.74
2023-01-13T08:22:07.203Z,7.71
2023-01-13T08:23:07.699Z,7.82
2023-01-13T08:24:07.426Z,7.81
2023-01-13T08:25:07.413Z,7.82
2023-01-13T08:26:07.431Z,7.82
2023-01-13T08:27:07.415Z,7.84
2023-01-13T08:28:07.410Z,7.86
2023-01-13T08:29:07.341Z,7.86
2023-01-13T08:30:07.139Z,7.92
2023-01-13T08:31:07.333Z,7.91
2023-01-13T08:32:07.433Z,7.94
2023-01-13T08:33:07.433Z,7.91
2023-01-13T08:34:07.073Z,7.95
2023-01-13T08:35:07.131Z,7.99
2023-01-13T08:36:07.207Z,7.92
2023-01-13T08:37:07.175Z,7.95
2023-01-13T08:38:07.251Z,7.91
2023-01-13T08:39:07.265Z,7.88
2023-01-13T08:40:08.393Z,7.91
2023-01-13T08:41:07.282Z,7.86
2023-01-13T08:42:07.151Z,7.95
2023-01-13T08:43:07.039Z,7.96
2023-01-13T08:44:07.312Z,7.96
2023-01-13T08:45:07.442Z,8.02
2023-01-13T08:46:07.430Z,7.95
2023-01-13T08:47:07.462Z,8.03
2023-01-13T08:48:06.879Z,7.99
2023-01-13T08:49:07.489Z,8.02
2023-01-13T08:50:07.422Z,8.06
2023-01-13T08:51:07.408Z,8.06
2023-01-13T08:52:07.412Z,8.07
2023-01-13T08:53:07.439Z,8.09
2023-01-13T08:54:06.838Z,8.07
2023-01-13T08:55:07.513Z,8.03
2023-01-13T08:56:07.048Z,8.04
2023-01-13T08:57:06.959Z,8.06
2023-01-13T08:58:15.219Z,8.07
2023-01-13T08:59:07.766Z,8.13
2023-01-13T09:00:07.440Z,8.12
2023-01-13T09:01:07.534Z,8.12
2023-01-13T09:02:07.554Z,8.17
2023-01-13T09:03:07.420Z,8.14
2023-01-13T09:04:07.550Z,8.14
2023-01-13T09:05:07.508Z,8.18
2023-01-13T09:06:07.461Z,8.22
2023-01-13T09:07:07.039Z,8.18
2023-01-13T09:08:07.424Z,8.21
2023-01-13T09:09:06.890Z,8.27
2023-01-13T09:10:07.505Z,8.24
2023-01-13T09:11:07.418Z,8.28
2023-01-13T09:12:07.010Z,8.25
2023-01-13T09:13:06.828Z,8.24
2023-01-13T09:14:07.358Z,8.29
2023-01-13T09:15:07.298Z,8.27
2023-01-13T09:16:07.458Z,8.25
2023-01-13T09:17:07.302Z,8.29
2023-01-13T09:18:06.800Z,8.37
2023-01-13T09:19:06.749Z,8.32
2023-01-13T09:20:07.083Z,8.32
2023-01-13T09:21:07.208Z,8.36
2023-01-13T09:22:06.431Z,8.34
2023-01-13T09:23:09.711Z,8.32
2023-01-13T09:24:06.407Z,8.34
2023-01-13T09:25:06.619Z,8.37
2023-01-13T09:26:06.546Z,8.29
2023-01-13T09:27:06.558Z,8.28
2023-01-13T09:28:06.579Z,8.27
2023-01-13T09:29:06.674Z,8.29
2023-01-13T09:30:06.621Z,8.25
2023-01-13T09:31:06.396Z,8.20
2023-01-13T09:32:06.684Z,8.27
2023-01-13T09:33:06.709Z,8.28
2023-01-13T09:34:06.734Z,8.29
2023-01-13T09:35:06.760Z,8.21
2023-01-13T09:36:06.774Z,8.22
2023-01-13T09:37:06.826Z,8.24
2023-01-13T09:38:06.377Z,8.21
2023-01-13T09:39:06.853Z,8.24
2023-01-13T09:40:06.194Z,8.22
2023-01-13T09:41:06.978Z,8.22
2023-01-13T09:42:06.956Z,8.27
2023-01-13T09:43:07.015Z,8.25
2023-01-13T09:44:06.125Z,8.34
2023-01-13T09:45:06.928Z,8.42
2023-01-13T09:46:06.590Z,8.42
2023-01-13T09:47:06.975Z,8.43
2023-01-13T09:48:06.155Z,8.49
2023-01-13T09:49:06.801Z,8.52
2023-01-13T09:50:06.969Z,8.54
2023-01-13T09:51:06.920Z,8.55
2023-01-13T09:52:06.763Z,8.52
2023-01-13T09:53:06.026Z,8.60
2023-01-13T09:54:06.815Z,8.57
2023-01-13T09:55:06.736Z,8.57
2023-01-13T09:56:06.884Z,8.65
2023-01-13T09:57:06.798Z,8.61
2023-01-13T09:58:08.633Z,8.57
2023-01-13T09:59:05.943Z,8.58
2023-01-13T10:00:06.085Z,8.54
2023-01-13T10:01:06.067Z,8.50
2023-01-13T10:02:06.085Z,8.46
2023-01-13T10:03:06.190Z,8.40
2023-01-13T10:04:07.252Z,8.37
2023-01-13T10:05:06.903Z,8.32
2023-01-13T10:06:06.273Z,8.29
2023-01-13T10:07:06.342Z,8.31
2023-01-13T10:08:06.398Z,8.25
2023-01-13T10:09:06.446Z,8.25
2023-01-13T10:10:09.256Z,8.29
2023-01-13T10:11:06.626Z,8.29
2023-01-13T10:12:06.669Z,8.32
2023-01-13T10:13:06.593Z,8.34
2023-01-13T10:14:05.853Z,8.27
2023-01-13T10:15:06.578Z,8.27
2023-01-13T10:16:06.571Z,8.25
2023-01-13T10:17:06.654Z,8.22
2023-01-13T10:18:06.563Z,8.21
2023-01-13T10:19:06.492Z,8.27
2023-01-13T10:20:06.379Z,8.29
2023-01-13T10:21:06.567Z,8.28
2023-01-13T10:22:08.521Z,8.39
2023-01-13T10:23:06.343Z,8.45
2023-01-13T10:24:05.612Z,8.45
2023-01-13T10:25:05.674Z,8.49
2023-01-13T10:26:05.618Z,8.52
2023-01-13T10:27:05.597Z,8.50
2023-01-13T10:28:05.543Z,8.50
2023-01-13T10:29:05.560Z,8.54
2023-01-13T10:30:05.615Z,8.49
2023-01-13T10:31:05.712Z,8.54
2023-01-13T10:32:05.521Z,8.61
2023-01-13T10:33:05.521Z,8.65
2023-01-13T10:34:05.580Z,8.70
2023-01-13T10:35:05.731Z,8.73
2023-01-13T10:36:05.756Z,8.76
2023-01-13T10:37:05.443Z,8.76
2023-01-13T10:38:05.815Z,8.85
2023-01-13T10:39:05.678Z,8.83
2023-01-13T10:40:05.945Z,8.79
2023-01-13T10:41:05.983Z,8.75
2023-01-13T10:42:06.330Z,8.78
2023-01-13T10:43:06.257Z,8.71
2023-01-13T10:44:09.327Z,8.78
2023-01-13T10:45:06.238Z,8.75
2023-01-13T10:46:05.827Z,8.67
2023-01-13T10:47:06.081Z,8.63
2023-01-13T10:48:06.313Z,8.57
2023-01-13T10:49:05.290Z,8.54
2023-01-13T10:50:05.651Z,8.57
2023-01-13T10:51:06.049Z,8.54
2023-01-13T10:52:06.485Z,8.57
2023-01-13T10:53:06.032Z,8.55
2023-01-13T10:54:06.197Z,8.47
2023-01-13T10:55:06.081Z,8.52
2023-01-13T10:56:06.000Z,8.43
2023-01-13T10:57:06.795Z,8.40
2023-01-13T10:58:06.050Z,8.40
2023-01-13T10:59:05.220Z,8.45
2023-01-13T11:00:05.215Z,8.39
2023-01-13T11:01:05.192Z,8.43
2023-01-13T11:02:23.460Z,8.49
2023-01-13T11:03:07.191Z,8.47
2023-01-13T11:04:06.540Z,8.45
2023-01-13T11:05:05.525Z,8.45
2023-01-13T11:06:05.565Z,8.47
2023-01-13T11:07:05.064Z,8.46
2023-01-13T11:08:05.678Z,8.50
2023-01-13T11:09:05.113Z,8.55
2023-01-13T11:10:05.772Z,8.61
2023-01-13T11:11:06.610Z,8.54
2023-01-13T11:12:04.992Z,8.60
2023-01-13T11:13:05.934Z,8.63
2023-01-13T11:14:05.059Z,8.63
2023-01-13T11:15:05.041Z,8.70
2023-01-13T11:16:05.894Z,8.70
2023-01-13T11:17:05.768Z,8.75
2023-01-13T11:18:05.683Z,8.75
2023-01-13T11:19:05.699Z,8.71
2023-01-13T11:20:05.745Z,8.64
2023-01-13T11:21:05.641Z,8.70
2023-01-13T11:22:04.843Z,8.67
2023-01-13T11:23:05.699Z,8.67
2023-01-13T11:24:05.008Z,8.65
2023-01-13T11:25:04.855Z,8.67
2023-01-13T11:26:05.218Z,8.63
2023-01-13T11:27:05.598Z,8.65
2023-01-13T11:28:04.770Z,8.65
2023-01-13T11:29:04.918Z,8.65
2023-01-13T11:30:04.927Z,8.65
2023-01-13T11:31:04.955Z,8.60
2023-01-13T11:32:04.973Z,8.64
2023-01-13T11:33:05.033Z,8.65
2023-01-13T11:34:05.077Z,8.63
2023-01-13T11:35:05.149Z,8.64
2023-01-13T11:36:05.199Z,8.64
2023-01-13T11:37:04.669Z,8.67
2023-01-13T11:38:05.309Z,8.67
2023-01-13T11:39:05.369Z,8.61
2023-01-13T11:40:05.388Z,8.70
2023-01-13T11:41:04.837Z,8.64
2023-01-13T11:42:05.419Z,8.63
2023-01-13T11:43:04.647Z,8.60
2023-01-13T11:44:05.328Z,8.61
2023-01-13T11:45:05.476Z,8.63
2023-01-13T11:46:04.613Z,8.67
2023-01-13T11:47:04.590Z,8.73
2023-01-13T11:48:05.368Z,8.71
2023-01-13T11:49:05.262Z,8.75
2023-01-13T11:50:05.430Z,8.75
2023-01-13T11:51:04.689Z,8.79
2023-01-13T11:52:05.324Z,8.73
2023-01-13T11:53:05.423Z,8.71
2023-01-13T11:54:05.285Z,8.70
2023-01-13T11:55:05.206Z,8.64
2023-01-13T11:56:05.358Z,8.65
2023-01-13T11:57:04.405Z,8.60
2023-01-13T11:58:04.406Z,8.57
2023-01-13T11:59:04.475Z,8.61
2023-01-13T12:00:04.523Z,8.54
2023-01-13T12:01:05.181Z,8.55
2023-01-13T12:02:04.676Z,8.50
2023-01-13T12:03:04.692Z,8.55
2023-01-13T12:04:04.298Z,8.54
2023-01-13T12:05:04.275Z,8.50
2023-01-13T12:06:04.286Z,8.50
2023-01-13T12:07:04.266Z,8.46
2023-01-13T12:08:04.269Z,8.50
2023-01-13T12:09:04.408Z,8.46
2023-01-13T12:10:05.023Z,8.49
2023-01-13T12:11:04.259Z,8.50
2023-01-13T12:12:04.181Z,8.57
2023-01-13T12:13:04.252Z,8.57
2023-01-13T12:14:04.234Z,8.58
2023-01-13T12:15:04.285Z,8.61
2023-01-13T12:16:06.965Z,8.60
2023-01-13T12:17:04.620Z,8.58
2023-01-13T12:18:04.233Z,8.54
2023-01-13T12:19:04.256Z,8.52
2023-01-13T12:20:04.254Z,8.58
2023-01-13T12:21:04.086Z,8.61
2023-01-13T12:22:04.167Z,8.58
2023-01-13T12:23:04.044Z,8.63
2023-01-13T12:24:04.256Z,8.63
2023-01-13T12:25:04.343Z,8.63
2023-01-13T12:26:04.345Z,8.68
2023-01-13T12:27:04.002Z,8.61
2023-01-13T12:28:03.981Z,8.63
2023-01-13T12:29:04.101Z,8.68
2023-01-13T12:30:04.300Z,8.65
2023-01-13T12:31:04.225Z,8.68
2023-01-13T12:32:03.978Z,8.68
2023-01-13T12:33:05.919Z,8.65
2023-01-13T12:34:04.024Z,8.70
2023-01-13T12:35:04.254Z,8.67
2023-01-13T12:36:03.947Z,8.63
2023-01-13T12:37:03.864Z,8.68
2023-01-13T12:38:03.854Z,8.64
2023-01-13T12:39:04.273Z,8.63
2023-01-13T12:40:04.235Z,8.60
2023-01-13T12:41:04.145Z,8.64
2023-01-13T12:42:03.943Z,8.67
2023-01-13T12:43:04.245Z,8.71
2023-01-13T12:44:03.778Z,8.75
2023-01-13T12:45:03.826Z,8.76
2023-01-13T12:46:04.168Z,8.78
2023-01-13T12:47:04.251Z,8.83
2023-01-13T12:48:03.710Z,8.83
2023-01-13T12:49:03.713Z,8.79
2023-01-13T12:50:03.704Z,8.75
2023-01-13T12:51:03.876Z,8.78
2023-01-13T12:52:03.664Z,8.83
2023-01-13T12:53:03.714Z,8.86
2023-01-13T12:54:03.888Z,8.88
2023-01-13T12:55:03.801Z,8.88
2023-01-13T12:56:04.013Z,8.82
2023-01-13T12:57:03.644Z,8.89
2023-01-13T12:58:03.673Z,8.86
2023-01-13T12:59:03.736Z,8.85
2023-01-13T13:00:03.836Z,8.79
2023-01-13T13:01:04.090Z,8.76
2023-01-13T13:02:03.970Z,8.86
2023-01-13T13:03:03.678Z,8.79
2023-01-13T13:04:04.161Z,8.85
2023-01-13T13:05:04.167Z,8.85
2023-01-13T13:06:03.844Z,8.88
2023-01-13T13:07:03.711Z,8.86
2023-01-13T13:08:04.101Z,8.79
2023-01-13T13:09:04.173Z,8.73
2023-01-13T13:10:03.436Z,8.65
2023-01-13T13:11:04.264Z,8.65
2023-01-13T13:12:03.414Z,8.60
2023-01-13T13:13:03.481Z,8.61
2023-01-13T13:14:03.431Z,8.61
2023-01-13T13:15:04.216Z,8.65
2023-01-13T13:16:03.408Z,8.61
2023-01-13T13:17:04.280Z,8.67
2023-01-13T13:18:03.724Z,8.58